createdAt,value
2023-05-02T00:00:44.206Z,1009.16
2023-05-02T00:01:44.242Z,1009.15
2023-05-02T00:02:44.425Z,1009.17
2023-05-02T00:03:44.354Z,1009.13
2023-05-02T00:04:44.231Z,1009.14
2023-05-02T00:05:44.202Z,1009.12
2023-05-02T00:06:44.282Z,1009.11
2023-05-02T00:07:44.202Z,1009.16
2023-05-02T00:08:44.206Z,1009.11
2023-05-02T00:09:44.203Z,1009.08
2023-05-02T00:10:44.210Z,1009.08
2023-05-02T00:11:44.204Z,1009.09
2023-05-02T00:12:44.208Z,1009.05
2023-05-02T00:13:44.208Z,1009.11
2023-05-02T00:14:44.209Z,1009.13
2023-05-02T00:15:44.207Z,1009.08
2023-05-02T00:16:44.267Z,1009.11
2023-05-02T00:17:44.268Z,1009.08
2023-05-02T00:18:44.210Z,1009.07
2023-05-02T00:19:44.217Z,1009.09
2023-05-02T00:20:44.220Z,1009.07
2023-05-02T00:21:44.210Z,1009.13
2023-05-02T00:22:44.205Z,1009.11
2023-05-02T00:23:44.206Z,1009.11
2023-05-02T00:24:44.212Z,1009.07
2023-05-02T00:25:44.207Z,1009.07
2023-05-02T00:26:44.213Z,1009.12
2023-05-02T00:27:44.211Z,1009.14
2023-05-02T00:28:44.214Z,1009.11
2023-05-02T00:29:44.222Z,1009.11
2023-05-02T00:30:44.289Z,1009.10
2023-05-02T00:31:44.279Z,1009.13
2023-05-02T00:32:44.239Z,1009.15
2023-05-02T00:33:44.230Z,1009.11
2023-05-02T00:34:44.212Z,1009.08
2023-05-02T00:35:44.216Z,1009.10
2023-05-02T00:36:44.214Z,1009.09
2023-05-02T00:37:44.210Z,1009.06
2023-05-02T00:38:44.218Z,1009.06
2023-05-02T00:39:44.210Z,1009.09
2023-05-02T00:40:44.221Z,1009.03
2023-05-02T00:41:44.222Z,1009.01
2023-05-02T00:42:44.219Z,1009.04
2023-05-02T00:43:44.215Z,1009.01
2023-05-02T00:44:44.214Z,1008.97
2023-05-02T00:45:44.213Z,1008.93
2023-05-02T00:46:44.262Z,1008.97
2023-05-02T00:47:44.253Z,1008.93
2023-05-02T00:48:44.211Z,1008.98
2023-05-02T00:49:44.242Z,1008.95
2023-05-02T00:50:44.217Z,1008.96
2023-05-02T00:51:44.221Z,1008.91
2023-05-02T00:52:44.214Z,1008.98
2023-05-02T00:53:44.217Z,1008.95
2023-05-02T00:54:44.215Z,1008.96
2023-05-02T00:55:44.225Z,1008.97
2023-05-02T00:56:44.211Z,1008.97
2023-05-02T00:57:44.225Z,1008.97
2023-05-02T00:58:44.212Z,1008.97
2023-05-02T00:59:44.220Z,1008.97
2023-05-02T01:00:44.217Z,1008.96
2023-05-02T01:01:44.266Z,1008.93
2023-05-02T01:02:44.361Z,1008.92
2023-05-02T01:03:44.391Z,1008.98
2023-05-02T01:04:44.213Z,1008.95
2023-05-02T01:05:44.237Z,1008.93
2023-05-02T01:06:44.261Z,1008.93
2023-05-02T01:07:44.215Z,1008.93
2023-05-02T01:08:44.212Z,1008.92
2023-05-02T01:09:44.214Z,1008.99
2023-05-02T01:10:44.213Z,1008.99
2023-05-02T01:11:44.216Z,1008.96
2023-05-02T01:12:44.214Z,1008.97
2023-05-02T01:13:44.217Z,1009.00
2023-05-02T01:14:44.226Z,1008.97
2023-05-02T01:15:44.250Z,1008.97
2023-05-02T01:16:44.534Z,1008.99
2023-05-02T01:17:44.256Z,1009.00
2023-05-02T01:18:44.212Z,1009.01
2023-05-02T01:19:44.219Z,1009.01
2023-05-02T01:20:44.214Z,1009.00
2023-05-02T01:21:44.250Z,1009.03
2023-05-02T01:22:44.213Z,1008.96
2023-05-02T01:23:44.218Z,1008.99
2023-05-02T01:24:44.216Z,1009.01
2023-05-02T01:25:44.225Z,1008.97
2023-05-02T01:26:44.230Z,1009.02
2023-05-02T01:27:44.219Z,1009.01
2023-05-02T01:28:44.212Z,1009.02
2023-05-02T01:29:44.220Z,1009.03
2023-05-02T01:30:44.208Z,1009.02
2023-05-02T01:31:44.306Z,1009.01
2023-05-02T01:32:44.243Z,1009.04
2023-05-02T01:33:44.213Z,1009.02
2023-05-02T01:34:44.212Z,1009.06
2023-05-02T01:35:44.216Z,1009.10
2023-05-02T01:36:44.215Z,1009.09
2023-05-02T01:37:44.238Z,1009.07
2023-05-02T01:38:44.213Z,1009.06
2023-05-02T01:39:44.218Z,1009.08
2023-05-02T01:40:44.213Z,1009.09
2023-05-02T01:41:44.215Z,1009.08
2023-05-02T01:42:44.212Z,1009.08
2023-05-02T01:43:44.224Z,1009.11
2023-05-02T01:44:44.217Z,1009.11
2023-05-02T01:45:44.218Z,1009.07
2023-05-02T01:46:44.369Z,1009.14
2023-05-02T01:47:44.244Z,1009.15
2023-05-02T01:48:44.218Z,1009.18
2023-05-02T01:49:44.223Z,1009.17
2023-05-02T01:50:44.216Z,1009.20
2023-05-02T01:51:44.224Z,1009.19
2023-05-02T01:52:44.239Z,1009.20
2023-05-02T01:53:44.237Z,1009.18
2023-05-02T01:54:44.218Z,1009.16
2023-05-02T01:55:44.222Z,1009.18
2023-05-02T01:56:44.215Z,1009.18
2023-05-02T01:57:44.225Z,1009.17
2023-05-02T01:58:44.213Z,1009.14
2023-05-02T01:59:44.224Z,1009.19
2023-05-02T02:00:44.280Z,1009.18
2023-05-02T02:01:44.250Z,1009.14
2023-05-02T02:02:44.219Z,1009.17
2023-05-02T02:03:44.253Z,1009.21
2023-05-02T02:04:44.265Z,1009.18
2023-05-02T02:05:44.266Z,1009.14
2023-05-02T02:06:44.292Z,1009.19
2023-05-02T02:07:44.248Z,1009.17
2023-05-02T02:08:44.215Z,1009.14
2023-05-02T02:09:44.244Z,1009.16
2023-05-02T02:10:44.238Z,1009.20
2023-05-02T02:11:44.220Z,1009.21
2023-05-02T02:12:44.224Z,1009.15
2023-05-02T02:13:44.212Z,1009.21
2023-05-02T02:14:44.210Z,1009.19
2023-05-02T02:15:44.220Z,1009.19
2023-05-02T02:16:44.268Z,1009.20
2023-05-02T02:17:44.284Z,1009.20
2023-05-02T02:18:44.209Z,1009.20
2023-05-02T02:19:44.272Z,1009.20
2023-05-02T02:20:44.211Z,1009.21
2023-05-02T02:21:44.214Z,1009.19
2023-05-02T02:22:44.214Z,1009.20
2023-05-02T02:23:44.217Z,1009.18
2023-05-02T02:24:44.213Z,1009.23
2023-05-02T02:25:44.236Z,1009.23
2023-05-02T02:26:44.204Z,1009.24
2023-05-02T02:27:44.206Z,1009.25
2023-05-02T02:28:44.221Z,1009.29
2023-05-02T02:29:44.222Z,1009.34
2023-05-02T02:30:44.245Z,1009.32
2023-05-02T02:31:44.213Z,1009.38
2023-05-02T02:32:44.241Z,1009.40
2023-05-02T02:33:44.211Z,1009.38
2023-05-02T02:34:44.211Z,1009.41
2023-05-02T02:35:44.220Z,1009.39
2023-05-02T02:36:44.218Z,1009.40
2023-05-02T02:37:44.215Z,1009.45
2023-05-02T02:38:44.204Z,1009.47
2023-05-02T02:39:44.206Z,1009.50
2023-05-02T02:40:44.208Z,1009.53
2023-05-02T02:41:44.235Z,1009.58
2023-05-02T02:42:44.207Z,1009.62
2023-05-02T02:43:44.213Z,1009.67
2023-05-02T02:44:44.205Z,1009.60
2023-05-02T02:45:44.212Z,1009.67
2023-05-02T02:46:44.324Z,1009.68
2023-05-02T02:47:44.268Z,1009.70
2023-05-02T02:48:44.206Z,1009.75
2023-05-02T02:49:44.216Z,1009.72
2023-05-02T02:50:44.207Z,1009.72
2023-05-02T02:51:44.211Z,1009.73
2023-05-02T02:52:44.200Z,1009.71
2023-05-02T02:53:44.201Z,1009.76
2023-05-02T02:54:44.208Z,1009.77
2023-05-02T02:55:44.206Z,1009.82
2023-05-02T02:56:44.203Z,1009.77
2023-05-02T02:57:44.226Z,1009.79
2023-05-02T02:58:44.202Z,1009.84
2023-05-02T02:59:44.205Z,1009.84
2023-05-02T03:00:44.204Z,1009.83
2023-05-02T03:01:44.244Z,1009.84
2023-05-02T03:02:44.213Z,1009.89
2023-05-02T03:03:44.251Z,1009.88
2023-05-02T03:04:44.208Z,1009.90
2023-05-02T03:05:44.204Z,1009.95
2023-05-02T03:06:44.260Z,1009.94
2023-05-02T03:07:44.207Z,1009.93
2023-05-02T03:08:44.204Z,1010.01
2023-05-02T03:09:44.199Z,1009.97
2023-05-02T03:10:44.200Z,1009.99
2023-05-02T03:11:44.199Z,1009.98
2023-05-02T03:12:44.199Z,1009.99
2023-05-02T03:13:44.220Z,1010.09
2023-05-02T03:14:44.196Z,1010.11
2023-05-02T03:15:44.249Z,1010.11
2023-05-02T03:16:44.250Z,1010.10
2023-05-02T03:17:44.302Z,1010.09
2023-05-02T03:18:44.195Z,1010.07
2023-05-02T03:19:44.207Z,1010.10
2023-05-02T03:20:44.202Z,1010.11
2023-05-02T03:21:44.205Z,1010.14
2023-05-02T03:22:44.197Z,1010.11
2023-05-02T03:23:44.208Z,1010.13
2023-05-02T03:24:44.200Z,1010.18
2023-05-02T03:25:44.208Z,1010.20
2023-05-02T03:26:44.208Z,1010.19
2023-05-02T03:27:44.213Z,1010.19
2023-05-02T03:28:44.197Z,1010.26
2023-05-02T03:29:44.219Z,1010.25
2023-05-02T03:30:44.195Z,1010.28
2023-05-02T03:31:44.239Z,1010.27
2023-05-02T03:32:44.234Z,1010.28
2023-05-02T03:33:44.201Z,1010.28
2023-05-02T03:34:44.199Z,1010.36
2023-05-02T03:35:44.200Z,1010.39
2023-05-02T03:36:44.196Z,1010.41
2023-05-02T03:37:44.205Z,1010.48
2023-05-02T03:38:44.201Z,1010.51
2023-05-02T03:39:44.196Z,1010.50
2023-05-02T03:40:44.196Z,1010.53
2023-05-02T03:41:44.202Z,1010.50
2023-05-02T03:42:44.195Z,1010.54
2023-05-02T03:43:44.197Z,1010.52
2023-05-02T03:44:44.193Z,1010.56
2023-05-02T03:45:44.224Z,1010.61
2023-05-02T03:46:44.228Z,1010.58
2023-05-02T03:47:44.230Z,1010.58
2023-05-02T03:48:44.195Z,1010.64
2023-05-02T03:49:44.202Z,1010.69
2023-05-02T03:50:44.202Z,1010.69
2023-05-02T03:51:44.195Z,1010.70
2023-05-02T03:52:44.196Z,1010.72
2023-05-02T03:53:44.195Z,1010.73
2023-05-02T03:54:44.200Z,1010.75
2023-05-02T03:55:44.202Z,1010.72
2023-05-02T03:56:44.199Z,1010.71
2023-05-02T03:57:44.195Z,1010.74
2023-05-02T03:58:44.192Z,1010.74
2023-05-02T03:59:44.198Z,1010.76
2023-05-02T04:00:44.196Z,1010.77
2023-05-02T04:01:44.267Z,1010.72
2023-05-02T04:02:44.254Z,1010.77
2023-05-02T04:03:44.397Z,1010.83
2023-05-02T04:04:44.315Z,1010.84
2023-05-02T04:05:44.201Z,1010.85
2023-05-02T04:06:44.220Z,1010.91
2023-05-02T04:07:44.201Z,1010.91
2023-05-02T04:08:44.194Z,1010.95
2023-05-02T04:09:44.207Z,1010.97
2023-05-02T04:10:44.192Z,1010.99
2023-05-02T04:11:44.191Z,1010.99
2023-05-02T04:12:44.213Z,1011.02
2023-05-02T04:13:44.202Z,1011.02
2023-05-02T04:14:44.202Z,1010.99
2023-05-02T04:15:44.195Z,1011.01
2023-05-02T04:16:44.219Z,1011.09
2023-05-02T04:17:44.235Z,1011.11
2023-05-02T04:18:44.192Z,1011.09
2023-05-02T04:19:44.193Z,1011.11
2023-05-02T04:20:44.191Z,1011.09
2023-05-02T04:21:44.193Z,1011.11
2023-05-02T04:22:44.193Z,1011.12
2023-05-02T04:23:44.190Z,1011.13
2023-05-02T04:24:44.196Z,1011.15
2023-05-02T04:25:44.194Z,1011.20
2023-05-02T04:26:44.198Z,1011.17
2023-05-02T04:27:44.194Z,1011.19
2023-05-02T04:28:44.198Z,1011.20
2023-05-02T04:29:44.192Z,1011.22
2023-05-02T04:30:44.222Z,1011.24
2023-05-02T04:31:44.188Z,1011.23
2023-05-02T04:32:44.245Z,1011.26
2023-05-02T04:33:44.214Z,1011.20
2023-05-02T04:34:44.189Z,1011.28
2023-05-02T04:35:44.202Z,1011.32
2023-05-02T04:36:44.182Z,1011.36
2023-05-02T04:37:44.213Z,1011.43
2023-05-02T04:38:44.185Z,1011.39
2023-05-02T04:39:44.189Z,1011.43
2023-05-02T04:40:44.207Z,1011.47
2023-05-02T04:41:44.197Z,1011.44
2023-05-02T04:42:44.188Z,1011.49
2023-05-02T04:43:44.186Z,1011.50
2023-05-02T04:45:01.881Z,1011.51
2023-05-02T04:46:01.890Z,1011.53
2023-05-02T04:47:01.879Z,1011.54
2023-05-02T04:48:01.906Z,1011.56
2023-05-02T04:49:01.905Z,1011.55
2023-05-02T04:50:02.206Z,1011.57
2023-05-02T04:51:01.894Z,1011.59
2023-05-02T04:52:01.880Z,1011.62
2023-05-02T04:53:01.879Z,1011.60
2023-05-02T04:54:01.877Z,1011.63
2023-05-02T04:55:01.884Z,1011.60
2023-05-02T04:56:01.885Z,1011.63
2023-05-02T04:57:01.903Z,1011.64
2023-05-02T04:58:01.885Z,1011.69
2023-05-02T04:59:01.884Z,1011.69
2023-05-02T05:00:02.048Z,1011.67
2023-05-02T05:01:01.880Z,1011.68
2023-05-02T05:02:01.921Z,1011.74
2023-05-02T05:03:02.195Z,1011.78
2023-05-02T05:04:02.042Z,1011.80
2023-05-02T05:05:01.947Z,1011.83
2023-05-02T05:06:01.903Z,1011.85
2023-05-02T05:07:01.934Z,1011.86
2023-05-02T05:08:01.890Z,1011.94
2023-05-02T05:09:01.882Z,1011.91
2023-05-02T05:10:02.203Z,1011.92
2023-05-02T05:11:01.897Z,1011.91
2023-05-02T05:12:01.904Z,1011.98
2023-05-02T05:13:01.878Z,1011.97
2023-05-02T05:14:01.883Z,1012.03
2023-05-02T05:15:01.902Z,1012.05
2023-05-02T05:16:01.917Z,1011.99
2023-05-02T05:17:01.877Z,1012.04
2023-05-02T05:18:01.995Z,1012.05
2023-05-02T05:19:01.880Z,1012.02
2023-05-02T05:20:02.294Z,1012.05
2023-05-02T05:21:01.906Z,1012.09
2023-05-02T05:22:01.883Z,1012.15
2023-05-02T05:23:01.881Z,1012.18
2023-05-02T05:24:01.888Z,1012.19
2023-05-02T05:25:01.878Z,1012.25
2023-05-02T05:26:01.894Z,1012.22
2023-05-02T05:27:01.888Z,1012.25
2023-05-02T05:28:01.884Z,1012.25
2023-05-02T05:29:01.877Z,1012.25
2023-05-02T05:30:02.080Z,1012.27
2023-05-02T05:31:01.884Z,1012.30
2023-05-02T05:32:01.960Z,1012.30
2023-05-02T05:33:01.931Z,1012.28
2023-05-02T05:34:01.894Z,1012.29
2023-05-02T05:35:01.885Z,1012.33
2023-05-02T05:36:01.903Z,1012.45
2023-05-02T05:37:01.912Z,1012.40
2023-05-02T05:38:01.897Z,1012.38
2023-05-02T05:39:01.884Z,1012.40
2023-05-02T05:40:02.351Z,1012.37
2023-05-02T05:41:01.898Z,1012.40
2023-05-02T05:42:01.891Z,1012.39
2023-05-02T05:43:01.887Z,1012.38
2023-05-02T05:44:01.883Z,1012.43
2023-05-02T05:45:01.883Z,1012.42
2023-05-02T05:46:01.893Z,1012.46
2023-05-02T05:47:01.927Z,1012.49
2023-05-02T05:48:01.948Z,1012.51
2023-05-02T05:49:01.906Z,1012.52
2023-05-02T05:50:02.225Z,1012.57
2023-05-02T05:51:01.887Z,1012.56
2023-05-02T05:52:01.920Z,1012.57
2023-05-02T05:53:01.928Z,1012.57
2023-05-02T05:54:01.891Z,1012.61
2023-05-02T05:55:01.899Z,1012.68
2023-05-02T05:56:01.896Z,1012.65
2023-05-02T05:57:01.889Z,1012.68
2023-05-02T05:58:01.908Z,1012.68
2023-05-02T05:59:01.895Z,1012.68
2023-05-02T06:00:02.400Z,1012.67
2023-05-02T06:01:01.891Z,1012.71
2023-05-02T06:02:01.891Z,1012.68
2023-05-02T06:03:02.175Z,1012.73
2023-05-02T06:04:01.957Z,1012.75
2023-05-02T06:05:02.092Z,1012.76
2023-05-02T06:06:01.980Z,1012.81
2023-05-02T06:07:01.890Z,1012.80
2023-05-02T06:08:01.893Z,1012.85
2023-05-02T06:09:01.913Z,1012.86
2023-05-02T06:10:02.250Z,1012.88
2023-05-02T06:11:01.905Z,1012.91
2023-05-02T06:12:01.900Z,1012.97
2023-05-02T06:13:01.898Z,1012.93
2023-05-02T06:14:01.900Z,1012.99
2023-05-02T06:15:01.895Z,1013.02
2023-05-02T06:16:01.960Z,1013.03
2023-05-02T06:17:01.897Z,1013.05
2023-05-02T06:18:01.948Z,1013.03
2023-05-02T06:19:01.896Z,1013.13
2023-05-02T06:20:02.302Z,1013.03
2023-05-02T06:21:01.898Z,1013.06
2023-05-02T06:22:01.905Z,1013.08
2023-05-02T06:23:01.903Z,1013.19
2023-05-02T06:24:01.911Z,1013.26
2023-05-02T06:25:01.927Z,1013.30
2023-05-02T06:26:01.921Z,1013.32
2023-05-02T06:27:01.898Z,1013.28
2023-05-02T06:28:01.907Z,1013.33
2023-05-02T06:29:01.912Z,1013.31
2023-05-02T06:30:02.400Z,1013.40
2023-05-02T06:31:02.036Z,1013.32
2023-05-02T06:32:02.067Z,1013.38
2023-05-02T06:33:01.940Z,1013.38
2023-05-02T06:34:01.905Z,1013.38
2023-05-02T06:35:01.900Z,1013.43
2023-05-02T06:36:02.398Z,1013.46
2023-05-02T06:37:01.914Z,1013.44
2023-05-02T06:38:01.907Z,1013.47
2023-05-02T06:39:01.900Z,1013.51
2023-05-02T06:40:02.206Z,1013.52
2023-05-02T06:41:01.926Z,1013.52
2023-05-02T06:42:01.906Z,1013.54
2023-05-02T06:43:01.906Z,1013.55
2023-05-02T06:44:01.907Z,1013.57
2023-05-02T06:45:01.913Z,1013.56
2023-05-02T06:46:01.913Z,1013.62
2023-05-02T06:47:01.973Z,1013.67
2023-05-02T06:48:01.945Z,1013.67
2023-05-02T06:49:01.905Z,1013.64
2023-05-02T06:50:02.341Z,1013.69
2023-05-02T06:51:01.951Z,1013.66
2023-05-02T06:52:01.933Z,1013.65
2023-05-02T06:53:01.927Z,1013.73
2023-05-02T06:54:01.912Z,1013.75
2023-05-02T06:55:01.915Z,1013.79
2023-05-02T06:56:01.913Z,1013.84
2023-05-02T06:57:01.933Z,1013.82
2023-05-02T06:58:01.914Z,1013.86
2023-05-02T06:59:01.912Z,1013.82
2023-05-02T07:00:02.379Z,1013.89
2023-05-02T07:01:01.977Z,1013.90
2023-05-02T07:02:04.426Z,1013.89
2023-05-02T07:03:01.959Z,1013.91
2023-05-02T07:04:01.964Z,1013.91
2023-05-02T07:05:01.922Z,1013.94
2023-05-02T07:06:01.958Z,1013.98
2023-05-02T07:07:01.918Z,1014.03
2023-05-02T07:08:01.922Z,1014.07
2023-05-02T07:09:01.927Z,1014.16
2023-05-02T07:10:02.319Z,1014.16
2023-05-02T07:11:01.923Z,1014.21
2023-05-02T07:12:03.063Z,1014.22
2023-05-02T07:13:01.953Z,1014.25
2023-05-02T07:14:01.930Z,1014.31
2023-05-02T07:15:01.925Z,1014.36
2023-05-02T07:16:01.958Z,1014.43
2023-05-02T07:17:02.012Z,1014.54
2023-05-02T07:18:01.956Z,1014.55
2023-05-02T07:19:01.929Z,1014.69
2023-05-02T07:20:02.157Z,1014.66
2023-05-02T07:21:01.943Z,1014.60
2023-05-02T07:22:01.983Z,1014.74
2023-05-02T07:23:01.930Z,1014.77
2023-05-02T07:24:01.944Z,1014.68
2023-05-02T07:25:01.945Z,1014.71
2023-05-02T07:26:02.831Z,1014.96
2023-05-02T07:27:01.938Z,1015.01
2023-05-02T07:28:01.977Z,1015.06
2023-05-02T07:29:01.968Z,1014.93
2023-05-02T07:30:02.427Z,1020.63
2023-05-02T07:31:01.951Z,1021.03
2023-05-02T07:32:02.048Z,1019.39
2023-05-02T07:33:01.974Z,1027.99
2023-05-02T07:34:01.962Z,1029.51
2023-05-02T07:35:01.981Z,1029.16
2023-05-02T07:36:01.955Z,1029.98
2023-05-02T07:37:01.958Z,1029.03
2023-05-02T07:38:01.961Z,1028.76
2023-05-02T07:39:01.954Z,1029.63
2023-05-02T07:40:02.339Z,1030.75
2023-05-02T07:41:01.970Z,1030.54
2023-05-02T07:42:01.969Z,1030.48
2023-05-02T07:43:01.973Z,1028.71
2023-05-02T07:44:01.975Z,1015.98
2023-05-02T07:45:02.005Z,1027.99
2023-05-02T07:46:02.015Z,1016.23
2023-05-02T07:47:01.995Z,1014.61
2023-05-02T07:48:02.006Z,1014.96
2023-05-02T07:49:01.990Z,1015.04
2023-05-02T07:50:02.205Z,1016.40
2023-05-02T07:51:02.009Z,1026.21
2023-05-02T07:52:02.003Z,1016.21
2023-05-02T07:53:02.008Z,1020.70
2023-05-02T07:54:02.012Z,1015.79
2023-05-02T07:55:02.007Z,1015.38
2023-05-02T07:56:02.019Z,1015.77
2023-05-02T07:57:02.079Z,1014.80
2023-05-02T07:58:02.027Z,1014.80
2023-05-02T07:59:03.178Z,1015.01
2023-05-02T08:00:02.614Z,1014.82
2023-05-02T08:01:02.049Z,1014.75
2023-05-02T08:02:02.038Z,1014.77
2023-05-02T08:03:02.159Z,1015.27
2023-05-02T08:04:02.241Z,1014.73
2023-05-02T08:05:02.106Z,1014.78
2023-05-02T08:06:02.125Z,1014.80
2023-05-02T08:07:02.065Z,1014.81
2023-05-02T08:08:02.084Z,1014.85
2023-05-02T08:09:02.075Z,1014.88
2023-05-02T08:10:02.463Z,1014.89
2023-05-02T08:11:02.070Z,1014.89
2023-05-02T08:12:02.080Z,1014.87
2023-05-02T08:13:02.071Z,1015.02
2023-05-02T08:14:02.077Z,1014.85
2023-05-02T08:15:02.085Z,1014.82
2023-05-02T08:16:02.104Z,1014.85
2023-05-02T08:17:02.114Z,1014.91
2023-05-02T08:18:02.173Z,1014.90
2023-05-02T08:19:02.100Z,1014.89
2023-05-02T08:20:02.429Z,1014.85
2023-05-02T08:21:02.104Z,1014.85
2023-05-02T08:22:02.101Z,1014.88
2023-05-02T08:23:02.105Z,1014.85
2023-05-02T08:24:02.114Z,1014.86
2023-05-02T08:25:02.130Z,1014.90
2023-05-02T08:26:02.117Z,1014.88
2023-05-02T08:27:02.116Z,1014.85
2023-05-02T08:28:02.128Z,1014.91
2023-05-02T08:29:02.120Z,1014.92
2023-05-02T08:30:02.161Z,1014.90
2023-05-02T08:31:02.128Z,1014.92
2023-05-02T08:32:02.198Z,1014.96
2023-05-02T08:33:02.228Z,1014.98
2023-05-02T08:34:02.134Z,1015.01
2023-05-02T08:35:02.135Z,1015.04
2023-05-02T08:36:02.146Z,1015.04
2023-05-02T08:37:02.145Z,1015.04
2023-05-02T08:38:02.147Z,1015.07
2023-05-02T08:39:02.156Z,1015.05
2023-05-02T08:40:02.496Z,1015.02
2023-05-02T08:41:02.151Z,1015.03
2023-05-02T08:42:02.158Z,1015.07
2023-05-02T08:43:02.156Z,1015.06
2023-05-02T08:44:02.166Z,1015.07
2023-05-02T08:45:02.164Z,1015.08
2023-05-02T08:46:02.162Z,1015.06
2023-05-02T08:47:02.207Z,1015.09
2023-05-02T08:48:02.226Z,1015.09
2023-05-02T08:49:02.188Z,1015.14
2023-05-02T08:50:02.583Z,1015.13
2023-05-02T08:51:02.175Z,1015.09
2023-05-02T08:52:02.180Z,1015.10
2023-05-02T08:53:02.176Z,1015.14
2023-05-02T08:54:02.192Z,1015.12
2023-05-02T08:55:02.485Z,1015.15
2023-05-02T08:56:02.188Z,1015.17
2023-05-02T08:57:02.181Z,1015.23
2023-05-02T08:58:02.189Z,1015.20
2023-05-02T08:59:02.189Z,1015.22
2023-05-02T09:00:02.188Z,1015.21
2023-05-02T09:01:02.216Z,1015.25
2023-05-02T09:02:02.189Z,1015.24
2023-05-02T09:03:02.236Z,1015.33
2023-05-02T09:04:02.233Z,1015.36
2023-05-02T09:05:02.448Z,1015.36
2023-05-02T09:06:02.213Z,1015.31
2023-05-02T09:07:02.212Z,1015.36
2023-05-02T09:08:02.216Z,1015.42
2023-05-02T09:09:02.211Z,1015.36
2023-05-02T09:10:02.214Z,1015.43
2023-05-02T09:11:02.214Z,1015.45
2023-05-02T09:12:02.534Z,1015.49
2023-05-02T09:13:02.214Z,1015.53
2023-05-02T09:14:02.214Z,1015.53
2023-05-02T09:15:02.218Z,1015.57
2023-05-02T09:16:02.253Z,1015.58
2023-05-02T09:17:02.301Z,1015.63
2023-05-02T09:18:02.264Z,1015.63
2023-05-02T09:19:02.230Z,1015.66
2023-05-02T09:20:02.230Z,1015.74
2023-05-02T09:21:02.258Z,1015.78
2023-05-02T09:22:02.231Z,1015.79
2023-05-02T09:23:02.227Z,1015.80
2023-05-02T09:24:02.226Z,1015.76
2023-05-02T09:25:02.351Z,1015.86
2023-05-02T09:26:02.241Z,1015.85
2023-05-02T09:27:02.237Z,1015.80
2023-05-02T09:28:02.239Z,1015.91
2023-05-02T09:29:02.391Z,1015.92
2023-05-02T09:30:02.236Z,1015.87
2023-05-02T09:31:02.274Z,1015.86
2023-05-02T09:32:02.284Z,1015.84
2023-05-02T09:33:02.279Z,1015.86
2023-05-02T09:34:02.245Z,1015.86
2023-05-02T09:36:45.571Z,1016.14
2023-05-02T09:37:45.560Z,1016.28
2023-05-02T09:38:45.557Z,1016.48
2023-05-02T09:39:45.574Z,1016.29
2023-05-02T09:40:45.559Z,1016.18
2023-05-02T09:41:45.592Z,1016.01
2023-05-02T09:42:45.564Z,1016.02
2023-05-02T09:43:45.578Z,1016.02
2023-05-02T09:44:45.585Z,1016.01
2023-05-02T09:45:45.633Z,1016.02
2023-05-02T09:46:45.648Z,1016.09
2023-05-02T09:47:45.625Z,1016.09
2023-05-02T09:48:45.582Z,1016.58
2023-05-02T09:49:46.257Z,1016.29
2023-05-02T09:50:45.585Z,1016.57
2023-05-02T09:51:45.594Z,1016.12
2023-05-02T09:52:45.625Z,1016.10
2023-05-02T09:53:45.599Z,1016.01
2023-05-02T09:54:45.607Z,1016.07
2023-05-02T09:55:45.601Z,1016.01
2023-05-02T09:56:45.605Z,1015.95
2023-05-02T09:57:45.606Z,1015.91
2023-05-02T09:58:45.623Z,1015.96
2023-05-02T09:59:45.613Z,1015.95
2023-05-02T10:00:45.611Z,1015.99
2023-05-02T10:01:45.651Z,1015.96
2023-05-02T10:02:45.657Z,1015.93
2023-05-02T10:03:45.726Z,1015.95
2023-05-02T10:04:45.669Z,1015.96
2023-05-02T10:05:45.642Z,1016.03
2023-05-02T10:06:46.077Z,1015.98
2023-05-02T10:07:45.637Z,1016.01
2023-05-02T10:08:45.684Z,1016.03
2023-05-02T10:09:45.642Z,1016.06
2023-05-02T10:10:45.634Z,1016.01
2023-05-02T10:11:45.648Z,1016.03
2023-05-02T10:12:45.640Z,1016.06
2023-05-02T10:13:45.652Z,1016.05
2023-05-02T10:14:45.644Z,1016.07
2023-05-02T10:15:45.678Z,1016.10
2023-05-02T10:16:45.652Z,1016.10
2023-05-02T10:17:45.677Z,1016.09
2023-05-02T10:18:45.662Z,1016.23
2023-05-02T10:19:45.657Z,1016.16
2023-05-02T10:20:45.662Z,1016.20
2023-05-02T10:21:45.666Z,1016.23
2023-05-02T10:22:45.668Z,1016.25
2023-05-02T10:23:45.678Z,1016.23
2023-05-02T10:24:45.694Z,1016.30
2023-05-02T10:25:45.681Z,1016.28
2023-05-02T10:26:45.678Z,1016.37
2023-05-02T10:27:45.693Z,1016.38
2023-05-02T10:28:45.684Z,1016.37
2023-05-02T10:29:45.682Z,1016.42
2023-05-02T10:30:45.684Z,1016.36
2023-05-02T10:31:45.740Z,1016.36
2023-05-02T10:32:45.800Z,1016.36
2023-05-02T10:33:45.692Z,1016.39
2023-05-02T10:34:45.694Z,1016.44
2023-05-02T10:35:45.724Z,1016.43
2023-05-02T10:36:45.696Z,1016.45
2023-05-02T10:37:45.709Z,1016.73
2023-05-02T10:38:45.703Z,1016.48
2023-05-02T10:39:45.702Z,1016.51
2023-05-02T10:40:45.723Z,1016.44
2023-05-02T10:41:45.705Z,1016.39
2023-05-02T10:42:45.737Z,1016.39
2023-05-02T10:43:45.710Z,1016.41
2023-05-02T10:44:45.712Z,1016.46
2023-05-02T10:45:45.714Z,1016.43
2023-05-02T10:46:45.742Z,1016.48
2023-05-02T10:47:45.742Z,1016.40
2023-05-02T10:48:45.723Z,1016.42
2023-05-02T10:49:45.721Z,1016.39
2023-05-02T10:50:45.719Z,1016.42
2023-05-02T10:51:45.730Z,1016.39
2023-05-02T10:52:45.730Z,1016.40
2023-05-02T10:53:45.727Z,1016.49
2023-05-02T10:54:45.727Z,1016.48
2023-05-02T10:55:45.728Z,1016.49
2023-05-02T10:56:45.809Z,1016.51
2023-05-02T10:57:45.735Z,1016.48
2023-05-02T10:58:45.736Z,1016.57
2023-05-02T10:59:45.745Z,1016.61
2023-05-02T11:00:45.767Z,1016.65
2023-05-02T11:01:45.803Z,1016.64
2023-05-02T11:02:45.800Z,1016.64
2023-05-02T11:03:45.747Z,1016.68
2023-05-02T11:04:45.745Z,1016.73
2023-05-02T11:05:45.758Z,1016.76
2023-05-02T11:06:45.918Z,1016.72
2023-05-02T11:07:45.758Z,1016.75
2023-05-02T11:08:45.756Z,1016.76
2023-05-02T11:09:45.755Z,1016.79
2023-05-02T11:10:45.756Z,1016.83
2023-05-02T11:11:45.777Z,1016.89
2023-05-02T11:12:45.781Z,1016.92
2023-05-02T11:13:45.788Z,1016.97
2023-05-02T11:14:45.763Z,1017.00
2023-05-02T11:15:45.772Z,1017.02
2023-05-02T11:16:45.816Z,1017.07
2023-05-02T11:17:45.791Z,1017.10
2023-05-02T11:18:45.768Z,1017.14
2023-05-02T11:19:45.783Z,1017.16
2023-05-02T11:20:45.802Z,1017.14
2023-05-02T11:21:45.788Z,1017.20
2023-05-02T11:22:45.773Z,1017.29
2023-05-02T11:23:45.786Z,1017.25
2023-05-02T11:24:45.783Z,1017.25
2023-05-02T11:25:45.799Z,1017.27
2023-05-02T11:26:45.793Z,1017.22
2023-05-02T11:27:45.794Z,1017.28
2023-05-02T11:28:45.821Z,1017.33
2023-05-02T11:29:45.811Z,1017.32
2023-05-02T11:30:45.798Z,1017.35
2023-05-02T11:31:45.852Z,1017.40
2023-05-02T11:32:45.981Z,1017.38
2023-05-02T11:33:45.808Z,1017.40
2023-05-02T11:34:45.804Z,1017.44
2023-05-02T11:35:45.806Z,1017.44
2023-05-02T11:36:45.801Z,1017.46
2023-05-02T11:37:45.805Z,1017.44
2023-05-02T11:38:45.807Z,1017.47
2023-05-02T11:39:45.828Z,1017.49
2023-05-02T11:40:45.815Z,1017.52
2023-05-02T11:41:45.817Z,1017.58
2023-05-02T11:42:45.813Z,1017.59
2023-05-02T11:43:45.821Z,1017.60
2023-05-02T11:44:45.838Z,1017.67
2023-05-02T11:45:45.866Z,1017.75
2023-05-02T11:46:46.047Z,1017.80
2023-05-02T11:47:45.878Z,1017.89
2023-05-02T11:48:45.824Z,1017.80
2023-05-02T11:49:45.836Z,1017.91
2023-05-02T11:50:49.654Z,1017.81
2023-05-02T11:51:45.841Z,1018.04
2023-05-02T11:52:45.834Z,1018.00
2023-05-02T11:53:45.837Z,1017.90
2023-05-02T11:54:45.836Z,1017.83
2023-05-02T11:55:45.842Z,1017.86
2023-05-02T11:56:45.842Z,1017.89
2023-05-02T11:57:45.847Z,1017.87
2023-05-02T11:58:45.843Z,1017.85
2023-05-02T11:59:45.850Z,1017.80
2023-05-02T12:00:45.880Z,1017.92
2023-05-02T12:01:45.857Z,1017.91
2023-05-02T12:02:45.996Z,1018.08
2023-05-02T12:03:46.256Z,1018.13
2023-05-02T12:04:45.869Z,1018.11
2023-05-02T12:05:45.948Z,1018.07
2023-05-02T12:06:45.907Z,1018.05
2023-05-02T12:07:45.887Z,1018.17